Time;durP1;ratioP1;P1;durP2;ratioP2;P2;SDS_P1;SDS_P2;PMS_P1;PMS_P2;Temp;Humidity;BMP_temperature;BMP_pressure;BME280_temperature;BME280_humidity;BME280_pressure;Samples;Min_cycle;Max_cycle;Signal;HPM_P1;HPM_P2
2021/09/13 00:00:29;;;;;;;;;;;;;;;11.20;77.08;97335.34;116322;1181;68875;-67
2021/09/13 00:03:03;;;;;;;;;;;;;;;11.16;75.34;97333.61;116279;1181;60353;-69
2021/09/13 00:05:34;;;;;;;;;;;;;;;11.13;76.76;97331.73;116416;1181;60311;-67
2021/09/13 00:08:05;;;;;;;;;;;;;;;11.10;77.23;97334.07;116403;1181;70551;-68
2021/09/13 00:10:36;;;;;;;;;;;;;;;11.09;75.28;97332.92;116488;1181;68947;-68
2021/09/13 00:13:06;;;;;;;;;;;;;;;11.07;75.52;97334.99;116354;1179;69209;-67
2021/09/13 00:15:36;;;;;;;;;;;;;;;11.06;74.34;97332.10;116118;1182;60413;-70
2021/09/13 00:18:06;;;;;;;;;;;;;;;11.06;73.35;97336.81;116327;1180;60358;-70
2021/09/13 00:20:38;;;;;;;;;;;;;;;11.05;73.90;97335.65;116263;1181;72141;-66
2021/09/13 00:23:08;;;;;;;;;;;;;;;11.04;73.67;97334.15;116301;1182;68778;-68
2021/09/13 00:25:39;;;;;;;;;;;;;;;11.01;73.87;97336.27;116291;1182;69263;-68
2021/09/13 00:28:12;;;;;;;;;;;;;;;10.99;74.88;97335.09;116270;1179;60343;-69
2021/09/13 00:30:41;;;;;;;;;;;;;;;10.95;75.79;97336.36;116288;1181;60317;-68
2021/09/13 00:33:10;;;;;;;;;;;;;;;10.93;76.87;97333.62;116290;1182;71960;-68
2021/09/13 00:35:41;;;;;;;;;;;;;;;10.90;75.51;97331.17;116327;1182;68192;-70
2021/09/13 00:38:12;;;;;;;;;;;;;;;10.89;76.71;97333.74;116284;1181;68909;-69
2021/09/13 00:40:42;;;;;;;;;;;;;;;10.87;77.56;97328.98;116322;1181;60754;-69
2021/09/13 00:43:12;;;;;;;;;;;;;;;10.85;77.89;97331.90;116295;1179;60294;-69
2021/09/13 00:45:42;;;;;;;;;;;;;;;10.84;77.10;97330.13;116317;1178;72408;-66
2021/09/13 00:48:11;;;;;;;;;;;;;;;10.82;77.48;97329.05;116262;1182;69293;-67
2021/09/13 00:50:41;;;;;;;;;;;;;;;10.80;76.97;97328.68;116272;1178;69111;-66
2021/09/13 00:53:12;;;;;;;;;;;;;;;10.78;76.37;97327.23;116335;1181;60289;-69
2021/09/13 00:55:57;;;;;;;;;;;;;;;10.75;77.46;97329.68;116186;1181;60353;-68
2021/09/13 00:58:29;;;;;;;;;;;;;;;10.73;76.43;97331.26;116398;1181;71460;-71
2021/09/13 01:01:00;;;;;;;;;;;;;;;10.70;78.43;97333.91;116283;1178;68417;-70
2021/09/13 01:03:31;;;;;;;;;;;;;;;10.66;78.10;97332.61;116274;1181;68405;-69
2021/09/13 01:06:01;;;;;;;;;;;;;;;10.62;76.89;97332.21;116341;1179;60384;-67
2021/09/13 01:08:31;;;;;;;;;;;;;;;10.60;79.80;97333.96;116225;1181;60334;-69
2021/09/13 01:11:02;;;;;;;;;;;;;;;10.55;78.62;97335.00;116275;1180;71089;-69
2021/09/13 01:13:31;;;;;;;;;;;;;;;10.54;78.54;97333.18;116342;1181;68463;-69
2021/09/13 01:16:04;;;;;;;;;;;;;;;10.53;78.25;97338.30;116284;1182;69204;-68
2021/09/13 01:18:34;;;;;;;;;;;;;;;10.52;79.99;97339.47;116191;1184;60400;-68
2021/09/13 01:21:05;;;;;;;;;;;;;;;10.49;81.19;97336.38;116239;1178;60305;-69
2021/09/13 01:23:36;;;;;;;;;;;;;;;10.47;81.05;97340.33;116350;1181;72040;-66
2021/09/13 01:26:11;;;;;;;;;;;;;;;10.47;78.87;97340.71;116293;1181;68497;-69
2021/09/13 01:28:41;;;;;;;;;;;;;;;10.46;77.84;97339.50;116166;1181;69188;-70
2021/09/13 01:31:13;;;;;;;;;;;;;;;10.46;78.91;97339.71;116259;1181;60326;-68
2021/09/13 01:33:46;;;;;;;;;;;;;;;10.44;78.70;97335.50;116278;1181;60263;-69
2021/09/13 01:36:23;;;;;;;;;;;;;;;10.43;79.59;97335.75;116228;1178;72161;-69
2021/09/13 01:38:55;;;;;;;;;;;;;;;10.43;76.88;97334.70;116335;1184;68369;-69
2021/09/13 01:41:25;;;;;;;;;;;;;;;10.42;74.77;97330.71;116270;1182;69715;-68
2021/09/13 01:43:58;;;;;;;;;;;;;;;10.40;75.33;97330.36;116286;1182;60294;-66
2021/09/13 01:46:29;;;;;;;;;;;;;;;10.38;75.97;97327.94;116468;1178;60336;-67
2021/09/13 01:49:00;;;;;;;;;;;;;;;10.35;76.28;97328.35;116320;1181;71427;-68
2021/09/13 01:51:30;;;;;;;;;;;;;;;10.31;76.43;97329.46;116179;1181;68453;-68
2021/09/13 01:54:00;;;;;;;;;;;;;;;10.29;79.11;97329.98;116179;1181;69233;-66
2021/09/13 01:56:30;;;;;;;;;;;;;;;10.27;77.21;97329.62;116101;1178;60339;-68
2021/09/13 01:59:02;;;;;;;;;;;;;;;10.24;76.58;97335.89;116182;1178;60720;-66
2021/09/13 02:01:32;;;;;;;;;;;;;;;10.23;77.20;97331.11;116304;1178;71310;-67
2021/09/13 02:04:04;;;;;;;;;;;;;;;10.21;77.27;97330.84;116167;1182;69115;-67
2021/09/13 02:06:34;;;;;;;;;;;;;;;10.23;77.96;97335.98;116175;1181;68292;-67
2021/09/13 02:09:05;;;;;;;;;;;;;;;10.22;78.49;97338.17;116162;1182;60317;-67
2021/09/13 02:11:36;;;;;;;;;;;;;;;10.17;78.95;97338.29;116242;1182;60329;-68
2021/09/13 02:14:07;;;;;;;;;;;;;;;10.15;79.67;97336.02;116145;1180;72133;-68
2021/09/13 02:16:37;;;;;;;;;;;;;;;10.13;78.40;97332.66;116175;1182;69059;-67
2021/09/13 02:19:09;;;;;;;;;;;;;;;10.10;77.73;97335.30;116170;1181;69179;-68
2021/09/13 02:21:39;;;;;;;;;;;;;;;10.07;78.56;97334.69;116166;1181;60415;-68
2021/09/13 02:24:10;;;;;;;;;;;;;;;10.04;77.07;97337.14;116142;1182;60353;-68
2021/09/13 02:26:39;;;;;;;;;;;;;;;10.00;76.73;97337.23;116204;1178;73561;-67
2021/09/13 02:29:09;;;;;;;;;;;;;;;9.96;77.16;97340.81;116103;1180;68975;-68
2021/09/13 02:31:40;;;;;;;;;;;;;;;9.94;77.30;97345.18;116279;1181;68458;-68
2021/09/13 02:34:10;;;;;;;;;;;;;;;9.91;78.32;97339.46;116153;1180;60356;-67
2021/09/13 02:36:40;;;;;;;;;;;;;;;9.89;79.18;97340.15;116184;1179;60355;-67
2021/09/13 02:39:10;;;;;;;;;;;;;;;9.87;79.16;97340.27;116180;1179;71387;-66
2021/09/13 02:41:45;;;;;;;;;;;;;;;9.86;79.93;97341.21;116308;1179;68513;-69
2021/09/13 02:44:15;;;;;;;;;;;;;;;9.85;79.32;97334.16;116154;1181;69447;-68
2021/09/13 02:46:45;;;;;;;;;;;;;;;9.84;79.91;97332.80;116378;1178;60341;-67
2021/09/13 02:49:15;;;;;;;;;;;;;;;9.85;79.88;97331.92;116199;1179;60424;-68
2021/09/13 02:51:45;;;;;;;;;;;;;;;9.85;78.93;97330.50;116256;1178;71351;-68
2021/09/13 02:54:14;;;;;;;;;;;;;;;9.85;79.44;97332.61;116219;1179;69366;-69
2021/09/13 02:56:46;;;;;;;;;;;;;;;9.84;79.82;97333.33;116227;1183;68841;-66
2021/09/13 02:59:16;;;;;;;;;;;;;;;9.84;80.15;97335.41;116327;1181;60417;-67
2021/09/13 03:01:45;;;;;;;;;;;;;;;9.84;82.89;97334.02;116319;1179;60298;-67
2021/09/13 03:04:15;;;;;;;;;;;;;;;9.83;84.27;97338.27;116212;1181;72101;-68
2021/09/13 03:06:45;;;;;;;;;;;;;;;9.85;83.37;97340.98;116097;1178;68428;-70
2021/09/13 03:09:15;;;;;;;;;;;;;;;9.85;82.28;97340.05;116324;1179;68632;-68
2021/09/13 03:11:45;;;;;;;;;;;;;;;9.86;82.34;97338.77;116324;1178;60431;-67
2021/09/13 03:14:14;;;;;;;;;;;;;;;9.86;80.24;97337.56;116242;1182;60314;-68
2021/09/13 03:16:45;;;;;;;;;;;;;;;9.85;78.77;97336.73;116260;1181;72144;-68
2021/09/13 03:19:16;;;;;;;;;;;;;;;9.84;79.39;97337.33;116144;1181;68389;-66
2021/09/13 03:21:46;;;;;;;;;;;;;;;9.82;80.25;97339.08;116036;1180;68694;-68
2021/09/13 03:24:17;;;;;;;;;;;;;;;9.75;80.70;97342.50;116159;1182;60378;-68
2021/09/13 03:26:47;;;;;;;;;;;;;;;9.71;78.85;97342.48;116080;1181;60343;-68
2021/09/13 03:29:17;;;;;;;;;;;;;;;9.68;77.85;97342.65;116072;1177;72155;-68
2021/09/13 03:31:46;;;;;;;;;;;;;;;9.65;78.64;97342.52;116102;1181;68650;-67
2021/09/13 03:34:17;;;;;;;;;;;;;;;9.63;77.05;97344.38;116185;1181;68251;-68
2021/09/13 03:36:46;;;;;;;;;;;;;;;9.61;78.16;97342.08;116188;1183;60409;-66
2021/09/13 03:39:15;;;;;;;;;;;;;;;9.58;79.49;97348.77;116183;1181;61234;-67
2021/09/13 03:41:45;;;;;;;;;;;;;;;9.54;78.24;97347.44;116145;1180;71321;-67
2021/09/13 03:44:15;;;;;;;;;;;;;;;9.52;77.66;97347.08;116156;1182;69163;-68
2021/09/13 03:46:44;;;;;;;;;;;;;;;9.51;77.92;97348.73;116245;1181;69215;-68
2021/09/13 03:49:20;;;;;;;;;;;;;;;9.50;78.12;97349.27;116319;1182;60363;-68
2021/09/13 03:51:50;;;;;;;;;;;;;;;9.50;78.46;97354.86;116259;1181;60418;-69
2021/09/13 03:54:19;;;;;;;;;;;;;;;9.47;79.01;97358.72;116218;1180;72055;-67
2021/09/13 03:56:49;;;;;;;;;;;;;;;9.44;78.58;97361.04;116241;1179;68354;-71
2021/09/13 03:59:20;;;;;;;;;;;;;;;9.40;79.74;97360.40;116339;1178;69209;-68
2021/09/13 04:01:50;;;;;;;;;;;;;;;9.32;81.12;97361.14;116151;1177;60343;-67
2021/09/13 04:04:23;;;;;;;;;;;;;;;9.27;80.47;97365.17;116149;1181;60414;-68
2021/09/13 04:07:49;;;;;;;;;;;;;;;9.25;78.97;97362.73;116161;1182;71940;-69
2021/09/13 04:10:20;;;;;;;;;;;;;;;9.26;78.58;97367.33;116158;1178;68368;-69
2021/09/13 04:13:14;;;;;;;;;;;;;;;9.29;79.97;97363.80;116184;1181;67441;-67
2021/09/13 04:15:56;;;;;;;;;;;;;;;9.31;81.74;97364.91;116153;1182;60363;-71
2021/09/13 04:18:57;;;;;;;;;;;;;;;9.30;81.78;97364.80;116273;1180;60304;-67
2021/09/13 04:21:45;;;;;;;;;;;;;;;9.32;81.23;97370.22;116108;1178;72538;-66
2021/09/13 04:24:35;;;;;;;;;;;;;;;9.38;80.84;97367.87;116247;1181;69000;-68
2021/09/13 04:27:22;;;;;;;;;;;;;;;9.48;79.79;97369.27;116204;1182;68166;-67
2021/09/13 04:30:10;;;;;;;;;;;;;;;9.60;79.23;97368.96;116230;1182;60382;-66
2021/09/13 04:32:55;;;;;;;;;;;;;;;9.73;78.15;97370.16;116312;1180;60373;-66
2021/09/13 04:35:53;;;;;;;;;;;;;;;9.91;77.49;97374.23;116292;1178;72087;-69
2021/09/13 04:38:37;;;;;;;;;;;;;;;10.10;77.58;97368.61;116217;1184;68343;-66
2021/09/13 04:41:27;;;;;;;;;;;;;;;10.28;77.38;97369.27;116241;1178;69193;-67
2021/09/13 04:44:19;;;;;;;;;;;;;;;10.40;77.98;97370.13;116211;1184;60375;-69
2021/09/13 04:47:05;;;;;;;;;;;;;;;10.42;78.01;97373.13;116271;1178;60359;-65
2021/09/13 04:49:55;;;;;;;;;;;;;;;10.46;77.58;97373.98;116280;1182;71311;-68
2021/09/13 04:52:44;;;;;;;;;;;;;;;10.57;76.92;97373.09;116305;1178;69143;-67
2021/09/13 04:55:13;;;;;;;;;;;;;;;10.71;76.32;97373.93;116262;1179;69299;-68
2021/09/13 04:57:43;;;;;;;;;;;;;;;10.85;76.71;97370.65;116198;1178;60288;-68
2021/09/13 05:00:14;;;;;;;;;;;;;;;11.00;75.91;97372.84;116250;1178;60332;-67
2021/09/13 05:02:43;;;;;;;;;;;;;;;11.16;75.66;97372.81;116146;1181;71435;-69
2021/09/13 05:05:13;;;;;;;;;;;;;;;11.33;75.45;97373.82;116335;1179;69063;-69
2021/09/13 05:07:42;;;;;;;;;;;;;;;11.51;74.85;97374.85;116221;1182;68396;-69
2021/09/13 05:10:11;;;;;;;;;;;;;;;11.72;74.58;97376.76;116200;1178;61305;-69
2021/09/13 05:12:40;;;;;;;;;;;;;;;11.88;73.97;97377.23;116284;1178;60346;-69
2021/09/13 05:15:10;;;;;;;;;;;;;;;11.97;73.93;97378.79;116272;1179;71185;-67
2021/09/13 05:17:39;;;;;;;;;;;;;;;12.06;73.56;97382.12;116316;1178;69156;-66
2021/09/13 05:20:09;;;;;;;;;;;;;;;12.14;73.51;97385.13;116234;1180;69147;-71
2021/09/13 05:22:38;;;;;;;;;;;;;;;12.25;73.35;97385.82;116275;1181;60334;-66
2021/09/13 05:25:09;;;;;;;;;;;;;;;12.47;73.31;97387.90;116148;1181;60343;-67
2021/09/13 05:27:39;;;;;;;;;;;;;;;12.82;72.93;97387.86;116096;1181;70559;-66
2021/09/13 05:30:09;;;;;;;;;;;;;;;13.22;71.51;97390.55;116144;1182;69032;-66
2021/09/13 05:32:39;;;;;;;;;;;;;;;13.60;71.18;97392.91;116231;1182;69166;-65
2021/09/13 05:35:08;;;;;;;;;;;;;;;13.95;69.02;97394.78;116093;1180;60307;-67
2021/09/13 05:37:37;;;;;;;;;;;;;;;14.32;68.55;97386.62;116080;1182;60422;-68
2021/09/13 05:40:08;;;;;;;;;;;;;;;14.73;67.57;97388.80;116074;1182;72129;-68
2021/09/13 05:42:37;;;;;;;;;;;;;;;15.23;68.47;97385.00;116131;1182;68988;-67
2021/09/13 05:45:07;;;;;;;;;;;;;;;15.72;65.54;97385.91;116105;1180;69330;-69
2021/09/13 05:47:38;;;;;;;;;;;;;;;16.11;64.17;97386.02;116088;1180;60419;-68
2021/09/13 05:50:08;;;;;;;;;;;;;;;16.51;62.67;97384.64;116119;1182;60314;-70
2021/09/13 05:52:37;;;;;;;;;;;;;;;16.99;64.45;97385.53;115971;1181;72253;-68
2021/09/13 05:55:07;;;;;;;;;;;;;;;17.51;62.54;97395.55;116020;1179;68801;-68
2021/09/13 05:57:40;;;;;;;;;;;;;;;17.98;59.88;97398.96;116202;1183;68404;-68
2021/09/13 06:00:09;;;;;;;;;;;;;;;18.28;59.23;97401.33;116083;1181;60346;-69
2021/09/13 06:02:40;;;;;;;;;;;;;;;18.37;56.53;97403.73;116253;1182;60343;-66
2021/09/13 06:05:21;;;;;;;;;;;;;;;18.59;58.13;97404.60;116289;1177;71575;-68
2021/09/13 06:07:51;;;;;;;;;;;;;;;18.97;56.24;97410.86;116340;1177;68967;-67
2021/09/13 06:10:23;;;;;;;;;;;;;;;19.28;55.87;97410.30;116257;1178;68432;-71
2021/09/13 06:12:52;;;;;;;;;;;;;;;19.50;54.87;97412.66;116164;1183;60327;-65
2021/09/13 06:15:23;;;;;;;;;;;;;;;19.66;54.51;97410.91;116192;1178;60360;-65
2021/09/13 06:17:52;;;;;;;;;;;;;;;19.61;54.50;97409.69;116291;1180;72156;-66
2021/09/13 06:20:23;;;;;;;;;;;;;;;19.69;53.94;97409.39;116014;1183;69017;-65
2021/09/13 06:22:54;;;;;;;;;;;;;;;19.36;53.42;97407.14;116097;1182;69231;-66
2021/09/13 06:25:30;;;;;;;;;;;;;;;19.07;54.22;97411.48;116142;1182;60304;-68
2021/09/13 06:27:59;;;;;;;;;;;;;;;18.89;55.29;97417.70;116246;1180;60359;-66
2021/09/13 06:30:28;;;;;;;;;;;;;;;18.44;56.54;97416.04;116262;1178;71963;-66
2021/09/13 06:33:00;;;;;;;;;;;;;;;18.41;56.78;97417.63;116391;1181;68361;-67
2021/09/13 06:35:34;;;;;;;;;;;;;;;18.68;56.13;97416.89;116178;1178;69029;-66
2021/09/13 06:38:06;;;;;;;;;;;;;;;18.84;56.04;97411.92;116244;1177;60382;-68
2021/09/13 06:40:37;;;;;;;;;;;;;;;19.25;56.10;97413.61;116295;1181;60302;-69
2021/09/13 06:43:07;;;;;;;;;;;;;;;19.77;54.52;97414.88;116266;1182;71982;-67
2021/09/13 06:45:45;;;;;;;;;;;;;;;20.26;52.58;97416.80;116297;1181;69210;-66
2021/09/13 06:48:15;;;;;;;;;;;;;;;20.58;51.24;97412.70;116185;1178;68113;-67
2021/09/13 06:50:44;;;;;;;;;;;;;;;20.44;50.98;97415.34;116207;1178;60355;-66
2021/09/13 06:53:13;;;;;;;;;;;;;;;20.83;50.56;97414.58;116259;1181;60309;-67
2021/09/13 06:55:41;;;;;;;;;;;;;;;21.34;50.46;97415.29;116172;1181;72746;-68
2021/09/13 06:58:10;;;;;;;;;;;;;;;21.47;47.92;97416.05;116253;1182;68884;-66
2021/09/13 07:00:40;;;;;;;;;;;;;;;21.52;47.80;97418.41;116220;1178;68395;-65
2021/09/13 07:03:09;;;;;;;;;;;;;;;21.79;47.08;97423.86;116257;1180;60325;-66
2021/09/13 07:05:38;;;;;;;;;;;;;;;22.43;46.62;97428.42;116230;1182;60282;-69
2021/09/13 07:08:06;;;;;;;;;;;;;;;21.89;46.50;97423.48;116275;1179;72199;-68
2021/09/13 07:10:35;;;;;;;;;;;;;;;22.04;46.41;97428.16;116203;1182;69158;-65
2021/09/13 07:13:07;;;;;;;;;;;;;;;21.99;46.33;97425.34;116244;1178;69244;-65
2021/09/13 07:15:35;;;;;;;;;;;;;;;22.02;46.91;97430.22;116214;1178;60352;-68
2021/09/13 07:18:05;;;;;;;;;;;;;;;21.69;47.49;97425.58;116420;1177;60365;-66
2021/09/13 07:20:35;;;;;;;;;;;;;;;21.76;47.72;97427.91;116300;1181;71384;-66
2021/09/13 07:23:04;;;;;;;;;;;;;;;21.76;48.08;97427.58;116293;1181;69264;-66
2021/09/13 07:25:32;;;;;;;;;;;;;;;22.09;47.14;97426.10;116142;1181;69132;-67
2021/09/13 07:28:02;;;;;;;;;;;;;;;21.81;48.16;97427.13;116199;1181;60346;-67
2021/09/13 07:30:31;;;;;;;;;;;;;;;21.86;48.14;97428.05;116280;1179;60770;-66
2021/09/13 07:33:00;;;;;;;;;;;;;;;21.52;48.12;97424.78;116276;1178;71753;-66
2021/09/13 07:35:29;;;;;;;;;;;;;;;21.84;48.21;97430.89;116261;1181;69162;-67
2021/09/13 07:37:58;;;;;;;;;;;;;;;21.95;47.23;97432.38;116274;1183;68607;-68
2021/09/13 07:40:27;;;;;;;;;;;;;;;21.68;47.46;97434.58;116240;1181;60365;-66
2021/09/13 07:42:56;;;;;;;;;;;;;;;21.63;47.97;97431.17;116297;1181;60334;-66
2021/09/13 07:45:25;;;;;;;;;;;;;;;21.64;47.74;97430.76;116266;1181;72193;-66
2021/09/13 07:47:54;;;;;;;;;;;;;;;22.18;46.95;97438.40;116252;1182;68076;-66
2021/09/13 07:50:23;;;;;;;;;;;;;;;22.62;45.70;97440.00;116110;1183;69332;-66
2021/09/13 07:52:53;;;;;;;;;;;;;;;22.95;44.80;97435.23;116162;1182;60335;-67
2021/09/13 07:55:26;;;;;;;;;;;;;;;22.88;44.52;97435.55;116487;1179;60287;-67
2021/09/13 07:57:55;;;;;;;;;;;;;;;22.79;44.70;97435.33;116269;1178;72161;-69
2021/09/13 08:00:39;;;;;;;;;;;;;;;23.57;43.93;97432.25;116231;1182;69238;-66
2021/09/13 08:03:08;;;;;;;;;;;;;;;24.35;42.78;97431.66;116248;1183;68452;-67
2021/09/13 08:05:38;;;;;;;;;;;;;;;25.16;40.73;97435.52;116344;1179;60301;-68
2021/09/13 08:08:07;;;;;;;;;;;;;;;25.56;39.93;97431.06;116337;1179;60333;-66
2021/09/13 08:10:36;;;;;;;;;;;;;;;25.89;39.25;97434.08;116305;1179;71974;-68
2021/09/13 08:13:07;;;;;;;;;;;;;;;26.23;38.26;97439.95;116252;1182;69145;-67
2021/09/13 08:15:36;;;;;;;;;;;;;;;26.63;37.18;97443.60;116196;1178;68217;-69
2021/09/13 08:18:05;;;;;;;;;;;;;;;26.81;36.60;97439.44;116258;1178;60364;-66
2021/09/13 08:20:35;;;;;;;;;;;;;;;26.58;37.23;97440.10;116248;1182;60372;-67
2021/09/13 08:23:05;;;;;;;;;;;;;;;26.36;37.53;97441.15;116309;1182;72251;-68
2021/09/13 08:25:34;;;;;;;;;;;;;;;26.96;36.46;97440.64;116265;1181;68234;-68
2021/09/13 08:28:19;;;;;;;;;;;;;;;27.42;36.25;97434.76;116132;1183;69049;-69
2021/09/13 08:30:48;;;;;;;;;;;;;;;27.57;35.25;97437.54;116281;1177;60360;-67
2021/09/13 08:33:17;;;;;;;;;;;;;;;27.87;35.29;97435.19;116223;1178;60384;-67
2021/09/13 08:35:47;;;;;;;;;;;;;;;27.54;34.55;97437.39;116212;1182;72084;-68
2021/09/13 08:38:16;;;;;;;;;;;;;;;26.59;36.29;97439.30;116301;1182;69646;-69
2021/09/13 08:40:45;;;;;;;;;;;;;;;27.32;35.66;97433.63;116241;1181;68474;-66
2021/09/13 08:43:14;;;;;;;;;;;;;;;27.00;35.57;97432.38;116271;1181;60407;-69
2021/09/13 08:48:28;;;;;;;;;;;;;;;27.12;35.67;97431.65;116228;1179;72000;-67
2021/09/13 08:51:16;;;;;;;;;;;;;;;27.85;35.60;97432.56;116275;1182;68416;-70
2021/09/13 08:53:53;;;;;;;;;;;;;;;28.22;33.33;97430.96;116264;1181;68525;-68
2021/09/13 08:56:29;;;;;;;;;;;;;;;28.44;33.32;97430.44;116235;1179;60340;-70
2021/09/13 08:58:58;;;;;;;;;;;;;;;28.42;32.60;97424.96;116302;1178;60299;-67
2021/09/13 09:01:27;;;;;;;;;;;;;;;29.18;32.38;97428.32;116306;1181;72188;-67
2021/09/13 09:03:58;;;;;;;;;;;;;;;29.10;31.47;97424.29;116274;1178;69261;-70
2021/09/13 09:06:34;;;;;;;;;;;;;;;28.75;31.75;97424.33;116248;1179;69315;-69
2021/09/13 09:09:07;;;;;;;;;;;;;;;27.44;33.76;97421.56;116269;1182;60420;-70
2021/09/13 09:12:13;;;;;;;;;;;;;;;28.67;31.84;97420.14;116266;1181;60337;-67
2021/09/13 09:14:44;;;;;;;;;;;;;;;28.78;31.68;97417.88;116119;1179;71533;-69
2021/09/13 09:17:25;;;;;;;;;;;;;;;28.81;31.77;97416.17;116138;1184;68389;-71
2021/09/13 09:20:01;;;;;;;;;;;;;;;29.54;30.37;97415.58;116174;1183;69107;-70
2021/09/13 09:22:31;;;;;;;;;;;;;;;29.10;30.68;97416.42;116128;1184;60320;-68
2021/09/13 09:25:03;;;;;;;;;;;;;;;29.36;30.14;97416.42;116165;1184;60300;-70
2021/09/13 09:27:50;;;;;;;;;;;;;;;29.82;29.37;97411.35;116140;1181;71406;-69
2021/09/13 09:30:20;;;;;;;;;;;;;;;29.51;30.08;97415.47;116189;1179;69269;-67
2021/09/13 09:33:07;;;;;;;;;;;;;;;29.71;29.85;97410.36;116115;1180;68303;-72
2021/09/13 09:35:45;;;;;;;;;;;;;;;29.77;29.53;97406.33;116182;1179;60748;-67
2021/09/13 09:38:34;;;;;;;;;;;;;;;29.98;29.03;97410.14;116161;1182;60362;-66
2021/09/13 09:41:05;;;;;;;;;;;;;;;30.21;28.63;97410.94;116166;1180;71597;-70
2021/09/13 09:43:52;;;;;;;;;;;;;;;30.56;27.41;97410.85;116171;1179;69198;-68
2021/09/13 09:46:24;;;;;;;;;;;;;;;30.32;28.36;97407.99;116004;1185;68256;-70
2021/09/13 09:49:06;;;;;;;;;;;;;;;30.71;27.42;97405.94;116052;1182;60340;-69
2021/09/13 09:51:39;;;;;;;;;;;;;;;30.93;26.89;97405.23;116288;1181;60328;-69
2021/09/13 09:54:12;;;;;;;;;;;;;;;31.46;26.51;97407.91;116293;1181;71192;-67
2021/09/13 09:56:42;;;;;;;;;;;;;;;31.96;26.72;97402.08;116302;1178;69239;-68
2021/09/13 09:59:12;;;;;;;;;;;;;;;32.42;26.68;97400.14;116300;1182;69613;-68
2021/09/13 10:01:46;;;;;;;;;;;;;;;33.04;25.96;97401.84;116193;1182;60335;-69
2021/09/13 10:04:22;;;;;;;;;;;;;;;33.49;24.57;97397.94;116380;1181;60318;-67
2021/09/13 10:06:52;;;;;;;;;;;;;;;33.84;24.71;97395.84;116510;1180;72189;-68
2021/09/13 10:09:22;;;;;;;;;;;;;;;34.30;23.61;97398.39;116210;1183;69096;-68
2021/09/13 10:11:52;;;;;;;;;;;;;;;34.32;23.28;97397.66;116303;1178;68558;-66
2021/09/13 10:14:22;;;;;;;;;;;;;;;34.51;23.14;97394.81;116393;1177;60340;-69
2021/09/13 10:16:52;;;;;;;;;;;;;;;34.73;22.81;97391.48;116188;1178;60373;-71
2021/09/13 10:19:38;;;;;;;;;;;;;;;34.98;22.06;97393.45;116293;1181;72208;-67
2021/09/13 10:22:06;;;;;;;;;;;;;;;34.93;21.53;97391.43;116278;1178;70798;-69
2021/09/13 10:24:36;;;;;;;;;;;;;;;35.17;21.73;97391.27;116286;1181;69086;-68
2021/09/13 10:27:09;;;;;;;;;;;;;;;35.33;21.24;97383.23;116473;1177;60301;-71
2021/09/13 10:29:38;;;;;;;;;;;;;;;35.62;21.20;97381.74;116339;1178;60317;-68
2021/09/13 10:32:28;;;;;;;;;;;;;;;35.93;21.04;97381.15;116306;1182;73429;-70
2021/09/13 10:34:57;;;;;;;;;;;;;;;36.23;20.51;97378.25;116311;1181;69118;-71
2021/09/13 10:37:37;;;;;;;;;;;;;;;36.67;19.63;97379.83;116271;1182;68791;-69
2021/09/13 10:40:10;;;;;;;;;;;;;;;36.96;19.04;97377.77;116381;1179;60363;-73
2021/09/13 10:42:49;;;;;;;;;;;;;;;37.37;19.16;97375.92;116244;1181;60794;-69
2021/09/13 10:45:25;;;;;;;;;;;;;;;37.60;18.60;97373.77;116313;1177;72253;-71
2021/09/13 10:47:54;;;;;;;;;;;;;;;37.93;18.39;97375.70;116432;1180;69420;-68
2021/09/13 10:50:25;;;;;;;;;;;;;;;38.18;18.47;97370.30;116296;1178;68416;-68
2021/09/13 10:52:55;;;;;;;;;;;;;;;38.31;18.48;97374.00;116279;1180;60310;-68
2021/09/13 10:55:25;;;;;;;;;;;;;;;38.49;18.23;97378.21;116315;1178;60365;-72
2021/09/13 10:57:57;;;;;;;;;;;;;;;38.65;18.01;97372.05;116317;1177;71381;-72
2021/09/13 11:00:44;;;;;;;;;;;;;;;38.63;18.54;97374.09;116356;1181;69257;-69
2021/09/13 11:03:23;;;;;;;;;;;;;;;38.89;18.49;97376.64;116266;1178;68412;-72
2021/09/13 11:06:08;;;;;;;;;;;;;;;39.41;17.96;97373.67;116326;1181;60372;-72
2021/09/13 11:08:39;;;;;;;;;;;;;;;38.87;17.55;97369.46;116375;1181;60301;-69
2021/09/13 11:11:27;;;;;;;;;;;;;;;38.52;17.25;97363.79;116347;1182;72166;-72
2021/09/13 11:14:04;;;;;;;;;;;;;;;36.88;18.91;97359.00;116294;1181;68523;-73
2021/09/13 11:16:34;;;;;;;;;;;;;;;36.52;19.20;97354.37;116264;1181;69042;-70
2021/09/13 11:19:11;;;;;;;;;;;;;;;37.32;18.87;97357.14;116304;1180;60363;-70
2021/09/13 11:21:42;;;;;;;;;;;;;;;37.66;18.30;97357.34;116342;1182;60424;-72
2021/09/13 11:24:19;;;;;;;;;;;;;;;36.79;19.06;97356.05;116457;1181;71719;-69
2021/09/13 11:27:00;;;;;;;;;;;;;;;36.56;19.26;97353.55;116366;1178;69303;-73
2021/09/13 11:29:30;;;;;;;;;;;;;;;34.60;21.30;97353.10;116394;1180;68533;-69
2021/09/13 11:32:01;;;;;;;;;;;;;;;35.59;20.47;97346.64;116313;1181;60313;-72
2021/09/13 11:34:36;;;;;;;;;;;;;;;36.74;19.47;97342.77;116314;1181;60351;-72
2021/09/13 11:37:08;;;;;;;;;;;;;;;37.47;18.51;97336.35;116390;1178;71528;-72
2021/09/13 11:40:00;;;;;;;;;;;;;;;37.66;18.23;97334.78;116343;1182;69230;-71
2021/09/13 11:42:32;;;;;;;;;;;;;;;37.72;18.20;97332.86;116333;1181;69303;-71
2021/09/13 11:45:12;;;;;;;;;;;;;;;37.64;18.93;97325.15;116441;1181;60413;-74
2021/09/13 11:47:54;;;;;;;;;;;;;;;37.95;19.20;97323.04;116478;1180;60309;-73
2021/09/13 11:50:23;;;;;;;;;;;;;;;38.44;18.86;97326.83;116319;1181;71364;-72
2021/09/13 11:52:53;;;;;;;;;;;;;;;39.06;18.09;97325.68;116312;1182;68503;-73
2021/09/13 11:55:26;;;;;;;;;;;;;;;39.45;17.67;97320.34;116295;1182;69291;-72
2021/09/13 11:57:58;;;;;;;;;;;;;;;39.76;16.59;97314.09;116324;1178;60342;-70
2021/09/13 12:00:28;;;;;;;;;;;;;;;39.96;16.87;97312.48;116349;1179;60327;-73
2021/09/13 12:03:02;;;;;;;;;;;;;;;39.98;16.45;97308.23;116354;1181;71985;-73
2021/09/13 12:05:43;;;;;;;;;;;;;;;40.05;16.26;97308.97;116392;1181;68412;-73
2021/09/13 12:08:22;;;;;;;;;;;;;;;40.08;16.20;97304.31;116303;1181;69304;-72
2021/09/13 12:10:51;;;;;;;;;;;;;;;40.48;16.15;97303.16;116294;1177;60378;-72
2021/09/13 12:13:23;;;;;;;;;;;;;;;40.58;15.51;97299.92;116293;1182;60313;-70
2021/09/13 12:15:52;;;;;;;;;;;;;;;40.51;15.64;97300.42;116321;1182;71197;-70
2021/09/13 12:18:21;;;;;;;;;;;;;;;40.40;15.45;97298.12;116301;1182;68280;-68
2021/09/13 12:20:51;;;;;;;;;;;;;;;40.72;15.74;97298.24;116429;1181;69271;-68
2021/09/13 12:23:27;;;;;;;;;;;;;;;40.37;14.95;97294.11;116351;1181;60354;-68
2021/09/13 12:26:03;;;;;;;;;;;;;;;39.85;15.31;97291.58;116268;1182;60347;-71
2021/09/13 12:28:33;;;;;;;;;;;;;;;39.58;15.67;97291.23;116422;1182;71314;-67
2021/09/13 12:31:07;;;;;;;;;;;;;;;37.99;16.85;97286.02;116572;1181;69334;-74
2021/09/13 12:33:44;;;;;;;;;;;;;;;37.82;17.72;97285.07;116344;1182;68318;-74
2021/09/13 12:36:17;;;;;;;;;;;;;;;38.69;17.58;97282.58;116417;1182;60363;-72
2021/09/13 12:38:48;;;;;;;;;;;;;;;39.24;17.46;97282.20;116548;1178;60360;-73
2021/09/13 12:41:36;;;;;;;;;;;;;;;39.72;16.92;97277.98;116570;1181;71880;-72
2021/09/13 12:44:17;;;;;;;;;;;;;;;39.98;16.57;97276.97;116563;1181;69523;-74
2021/09/13 12:46:48;;;;;;;;;;;;;;;40.32;16.25;97278.27;116532;1181;68885;-72
2021/09/13 12:49:17;;;;;;;;;;;;;;;40.57;15.90;97280.09;116547;1182;60344;-74
2021/09/13 12:51:53;;;;;;;;;;;;;;;40.70;15.83;97275.23;116576;1180;60348;-74
2021/09/13 12:54:32;;;;;;;;;;;;;;;40.71;15.48;97270.48;116509;1181;72202;-73
2021/09/13 12:57:01;;;;;;;;;;;;;;;40.86;15.33;97271.41;116484;1181;68486;-73
2021/09/13 12:59:31;;;;;;;;;;;;;;;40.81;15.28;97269.82;116463;1181;68473;-73
2021/09/13 13:02:10;;;;;;;;;;;;;;;40.20;15.47;97265.55;116480;1178;60351;-72
2021/09/13 13:04:40;;;;;;;;;;;;;;;39.36;16.31;97262.83;116504;1181;60331;-74
2021/09/13 13:07:14;;;;;;;;;;;;;;;39.49;16.69;97261.88;116541;1179;71283;-71
2021/09/13 13:09:43;;;;;;;;;;;;;;;39.71;16.62;97258.23;116555;1182;68961;-70